sensor_id;sensor_type;location;lat;lon;timestamp;temperature;humidity
13221;DHT22;6675;48.128;11.478;2024-02-26T00:00:32;0.20;52.80
13221;DHT22;6675;48.128;11.478;2024-02-26T00:03:00;0.40;53.10
13221;DHT22;6675;48.128;11.478;2024-02-26T00:05:26;-0.30;53.20
13221;DHT22;6675;48.128;11.478;2024-02-26T00:07:52;0.20;51.70
13221;DHT22;6675;48.128;11.478;2024-02-26T00:10:17;0.20;51.30
13221;DHT22;6675;48.128;11.478;2024-02-26T00:12:43;0.20;51.20
13221;DHT22;6675;48.128;11.478;2024-02-26T00:15:11;0.10;51.80
13221;DHT22;6675;48.128;11.478;2024-02-26T00:17:36;0.10;51.30
13221;DHT22;6675;48.128;11.478;2024-02-26T00:20:03;0.00;51.50
13221;DHT22;6675;48.128;11.478;2024-02-26T00:22:39;0.20;53.00
13221;DHT22;6675;48.128;11.478;2024-02-26T00:25:05;0.00;52.70
13221;DHT22;6675;48.128;11.478;2024-02-26T00:27:31;0.00;53.90
13221;DHT22;6675;48.128;11.478;2024-02-26T00:29:56;-0.10;53.80
13221;DHT22;6675;48.128;11.478;2024-02-26T00:32:22;0.30;54.90
13221;DHT22;6675;48.128;11.478;2024-02-26T00:34:47;0.10;54.70
13221;DHT22;6675;48.128;11.478;2024-02-26T00:39:58;-0.10;53.60
13221;DHT22;6675;48.128;11.478;2024-02-26T00:42:30;0.00;53.80
13221;DHT22;6675;48.128;11.478;2024-02-26T00:44:55;0.00;53.80
13221;DHT22;6675;48.128;11.478;2024-02-26T00:47:21;-0.20;52.10
13221;DHT22;6675;48.128;11.478;2024-02-26T00:52:20;-0.30;54.80
13221;DHT22;6675;48.128;11.478;2024-02-26T00:54:46;-0.30;55.10
13221;DHT22;6675;48.128;11.478;2024-02-26T00:57:11;-0.70;55.40
13221;DHT22;6675;48.128;11.478;2024-02-26T00:59:37;-0.20;56.30
13221;DHT22;6675;48.128;11.478;2024-02-26T01:02:03;-0.40;57.30
13221;DHT22;6675;48.128;11.478;2024-02-26T01:04:30;-0.40;58.80
13221;DHT22;6675;48.128;11.478;2024-02-26T01:06:56;-0.60;58.30
13221;DHT22;6675;48.128;11.478;2024-02-26T01:09:22;-0.30;57.90
13221;DHT22;6675;48.128;11.478;2024-02-26T01:11:47;-0.20;58.40
13221;DHT22;6675;48.128;11.478;2024-02-26T01:14:13;-0.10;59.30
13221;DHT22;6675;48.128;11.478;2024-02-26T01:16:48;-0.40;58.70
13221;DHT22;6675;48.128;11.478;2024-02-26T01:19:14;-0.40;60.00
13221;DHT22;6675;48.128;11.478;2024-02-26T01:24:06;-0.80;60.20
13221;DHT22;6675;48.128;11.478;2024-02-26T01:26:32;-0.40;60.40
13221;DHT22;6675;48.128;11.478;2024-02-26T01:28:58;-0.50;60.20
13221;DHT22;6675;48.128;11.478;2024-02-26T01:31:29;-0.50;59.80
13221;DHT22;6675;48.128;11.478;2024-02-26T01:33:55;-0.90;60.20
13221;DHT22;6675;48.128;11.478;2024-02-26T01:36:21;-0.50;60.30
13221;DHT22;6675;48.128;11.478;2024-02-26T01:38:47;-0.30;60.90
13221;DHT22;6675;48.128;11.478;2024-02-26T01:41:14;-0.60;58.90
13221;DHT22;6675;48.128;11.478;2024-02-26T01:43:40;-0.60;59.50
13221;DHT22;6675;48.128;11.478;2024-02-26T01:46:06;-0.60;59.40
13221;DHT22;6675;48.128;11.478;2024-02-26T01:48:32;-0.50;60.20
13221;DHT22;6675;48.128;11.478;2024-02-26T01:50:58;-0.70;58.10
13221;DHT22;6675;48.128;11.478;2024-02-26T01:53:24;-0.80;59.10
13221;DHT22;6675;48.128;11.478;2024-02-26T01:55:50;-0.50;58.20
13221;DHT22;6675;48.128;11.478;2024-02-26T01:58:15;-0.80;60.00
13221;DHT22;6675;48.128;11.478;2024-02-26T02:00:42;-1.00;58.90
13221;DHT22;6675;48.128;11.478;2024-02-26T02:03:08;-0.80;59.50
13221;DHT22;6675;48.128;11.478;2024-02-26T02:05:34;-0.70;59.20
13221;DHT22;6675;48.128;11.478;2024-02-26T02:08:07;-0.60;60.00
13221;DHT22;6675;48.128;11.478;2024-02-26T02:10:34;-0.90;58.50
13221;DHT22;6675;48.128;11.478;2024-02-26T02:12:59;-0.70;59.00
13221;DHT22;6675;48.128;11.478;2024-02-26T02:15:25;-0.80;59.10
13221;DHT22;6675;48.128;11.478;2024-02-26T02:17:53;-1.00;59.50
13221;DHT22;6675;48.128;11.478;2024-02-26T02:22:45;-1.20;58.70
13221;DHT22;6675;48.128;11.478;2024-02-26T02:25:18;-0.90;59.20
13221;DHT22;6675;48.128;11.478;2024-02-26T02:27:44;-1.00;58.60
13221;DHT22;6675;48.128;11.478;2024-02-26T02:30:11;-0.90;60.10
13221;DHT22;6675;48.128;11.478;2024-02-26T02:32:39;-0.60;60.30
13221;DHT22;6675;48.128;11.478;2024-02-26T02:35:05;-0.90;60.40
13221;DHT22;6675;48.128;11.478;2024-02-26T02:37:31;-0.90;60.60
13221;DHT22;6675;48.128;11.478;2024-02-26T02:42:23;-0.70;61.10
13221;DHT22;6675;48.128;11.478;2024-02-26T02:44:49;-0.90;60.70
13221;DHT22;6675;48.128;11.478;2024-02-26T02:47:15;-0.60;61.20
13221;DHT22;6675;48.128;11.478;2024-02-26T02:52:06;-1.00;61.40
13221;DHT22;6675;48.128;11.478;2024-02-26T02:54:32;-1.00;61.20
13221;DHT22;6675;48.128;11.478;2024-02-26T02:56:58;-0.80;61.50
13221;DHT22;6675;48.128;11.478;2024-02-26T02:59:23;-0.80;61.50
13221;DHT22;6675;48.128;11.478;2024-02-26T03:01:49;-1.00;61.30
13221;DHT22;6675;48.128;11.478;2024-02-26T03:04:15;-1.30;62.20
13221;DHT22;6675;48.128;11.478;2024-02-26T03:06:40;-0.90;62.30
13221;DHT22;6675;48.128;11.478;2024-02-26T03:09:06;-0.80;62.60
13221;DHT22;6675;48.128;11.478;2024-02-26T03:11:40;-1.00;63.20
13221;DHT22;6675;48.128;11.478;2024-02-26T03:14:05;-0.90;62.30
13221;DHT22;6675;48.128;11.478;2024-02-26T03:16:31;-1.00;62.10
13221;DHT22;6675;48.128;11.478;2024-02-26T03:18:57;-0.90;62.30
13221;DHT22;6675;48.128;11.478;2024-02-26T03:21:24;-0.90;62.30
13221;DHT22;6675;48.128;11.478;2024-02-26T03:23:50;-0.90;62.60
13221;DHT22;6675;48.128;11.478;2024-02-26T03:26:16;-0.80;62.50
13221;DHT22;6675;48.128;11.478;2024-02-26T03:28:41;-0.70;62.80
13221;DHT22;6675;48.128;11.478;2024-02-26T03:31:07;-1.00;63.10
13221;DHT22;6675;48.128;11.478;2024-02-26T03:33:32;-1.20;62.40
13221;DHT22;6675;48.128;11.478;2024-02-26T03:35:58;-0.90;63.80
13221;DHT22;6675;48.128;11.478;2024-02-26T03:38:23;-0.70;63.80
13221;DHT22;6675;48.128;11.478;2024-02-26T03:40:49;-0.90;63.90
13221;DHT22;6675;48.128;11.478;2024-02-26T03:43:15;-0.90;64.10
13221;DHT22;6675;48.128;11.478;2024-02-26T03:45:40;-0.80;64.30
13221;DHT22;6675;48.128;11.478;2024-02-26T03:48:06;-0.80;64.40
13221;DHT22;6675;48.128;11.478;2024-02-26T03:50:31;-0.80;63.80
13221;DHT22;6675;48.128;11.478;2024-02-26T03:52:58;-0.80;63.80
13221;DHT22;6675;48.128;11.478;2024-02-26T03:55:23;-0.70;64.10
13221;DHT22;6675;48.128;11.478;2024-02-26T03:57:51;-0.70;64.00
13221;DHT22;6675;48.128;11.478;2024-02-26T04:00:17;-0.70;64.20
13221;DHT22;6675;48.128;11.478;2024-02-26T04:05:13;-0.80;64.20
13221;DHT22;6675;48.128;11.478;2024-02-26T04:07:39;-0.60;64.60
13221;DHT22;6675;48.128;11.478;2024-02-26T04:10:12;-0.30;64.80
13221;DHT22;6675;48.128;11.478;2024-02-26T04:12:39;-0.80;64.40
13221;DHT22;6675;48.128;11.478;2024-02-26T04:15:06;-0.60;64.30
13221;DHT22;6675;48.128;11.478;2024-02-26T04:17:32;-0.50;64.30
13221;DHT22;6675;48.128;11.478;2024-02-26T04:19:57;-0.20;64.70
13221;DHT22;6675;48.128;11.478;2024-02-26T04:22:29;-0.10;68.10
13221;DHT22;6675;48.128;11.478;2024-02-26T04:24:55;0.00;69.00
13221;DHT22;6675;48.128;11.478;2024-02-26T04:27:20;-0.10;68.80
13221;DHT22;6675;48.128;11.478;2024-02-26T04:29:46;-0.30;68.10
13221;DHT22;6675;48.128;11.478;2024-02-26T04:32:11;-0.20;69.00
13221;DHT22;6675;48.128;11.478;2024-02-26T04:34:37;-0.10;68.60
13221;DHT22;6675;48.128;11.478;2024-02-26T04:37:03;-0.20;68.40
13221;DHT22;6675;48.128;11.478;2024-02-26T04:39:28;-0.10;68.40
13221;DHT22;6675;48.128;11.478;2024-02-26T04:41:54;-0.30;67.80
13221;DHT22;6675;48.128;11.478;2024-02-26T04:44:20;0.00;67.90
13221;DHT22;6675;48.128;11.478;2024-02-26T04:46:45;0.00;67.60
13221;DHT22;6675;48.128;11.478;2024-02-26T04:49:11;0.10;67.30
13221;DHT22;6675;48.128;11.478;2024-02-26T04:54:03;0.40;67.20
13221;DHT22;6675;48.128;11.478;2024-02-26T04:56:28;0.20;66.20
13221;DHT22;6675;48.128;11.478;2024-02-26T04:58:57;0.10;65.60
13221;DHT22;6675;48.128;11.478;2024-02-26T05:01:23;0.30;66.20
13221;DHT22;6675;48.128;11.478;2024-02-26T05:03:48;0.20;64.70
13221;DHT22;6675;48.128;11.478;2024-02-26T05:06:14;0.60;65.20
13221;DHT22;6675;48.128;11.478;2024-02-26T05:08:40;0.40;64.90
13221;DHT22;6675;48.128;11.478;2024-02-26T05:11:06;0.50;64.70
13221;DHT22;6675;48.128;11.478;2024-02-26T05:13:32;0.40;63.70
13221;DHT22;6675;48.128;11.478;2024-02-26T05:16:00;0.50;63.50
13221;DHT22;6675;48.128;11.478;2024-02-26T05:18:27;0.60;62.90
13221;DHT22;6675;48.128;11.478;2024-02-26T05:20:52;0.60;61.30
13221;DHT22;6675;48.128;11.478;2024-02-26T05:23:18;0.60;60.00
13221;DHT22;6675;48.128;11.478;2024-02-26T05:25:43;0.60;58.10
13221;DHT22;6675;48.128;11.478;2024-02-26T05:28:12;0.70;60.10
13221;DHT22;6675;48.128;11.478;2024-02-26T05:30:38;0.80;60.50
13221;DHT22;6675;48.128;11.478;2024-02-26T05:33:05;0.60;58.80
13221;DHT22;6675;48.128;11.478;2024-02-26T05:35:40;0.40;58.00
13221;DHT22;6675;48.128;11.478;2024-02-26T05:38:06;0.80;58.60
13221;DHT22;6675;48.128;11.478;2024-02-26T05:40:31;0.70;58.60
13221;DHT22;6675;48.128;11.478;2024-02-26T05:42:57;0.60;55.40
13221;DHT22;6675;48.128;11.478;2024-02-26T05:45:25;0.50;54.90
13221;DHT22;6675;48.128;11.478;2024-02-26T05:47:53;0.70;55.50
13221;DHT22;6675;48.128;11.478;2024-02-26T05:50:19;0.40;54.80
13221;DHT22;6675;48.128;11.478;2024-02-26T05:52:44;0.40;54.70
13221;DHT22;6675;48.128;11.478;2024-02-26T05:55:10;0.40;56.30
13221;DHT22;6675;48.128;11.478;2024-02-26T05:57:36;0.30;56.70
13221;DHT22;6675;48.128;11.478;2024-02-26T06:00:02;0.30;57.50
13221;DHT22;6675;48.128;11.478;2024-02-26T06:02:30;0.30;60.00
13221;DHT22;6675;48.128;11.478;2024-02-26T06:04:56;0.30;60.50
13221;DHT22;6675;48.128;11.478;2024-02-26T06:07:23;0.40;60.70
13221;DHT22;6675;48.128;11.478;2024-02-26T06:09:48;0.40;61.20
13221;DHT22;6675;48.128;11.478;2024-02-26T06:12:14;0.30;62.70
13221;DHT22;6675;48.128;11.478;2024-02-26T06:14:41;0.40;62.90
13221;DHT22;6675;48.128;11.478;2024-02-26T06:17:21;0.70;64.20
13221;DHT22;6675;48.128;11.478;2024-02-26T06:19:52;0.50;62.80
13221;DHT22;6675;48.128;11.478;2024-02-26T06:24:44;0.60;62.60
13221;DHT22;6675;48.128;11.478;2024-02-26T06:27:10;0.80;62.70
13221;DHT22;6675;48.128;11.478;2024-02-26T06:29:35;0.80;61.60
13221;DHT22;6675;48.128;11.478;2024-02-26T06:32:06;0.90;62.30
13221;DHT22;6675;48.128;11.478;2024-02-26T06:34:32;0.70;62.00
13221;DHT22;6675;48.128;11.478;2024-02-26T06:37:23;0.90;61.50
13221;DHT22;6675;48.128;11.478;2024-02-26T06:39:56;1.00;61.20
13221;DHT22;6675;48.128;11.478;2024-02-26T06:42:22;1.10;61.60
13221;DHT22;6675;48.128;11.478;2024-02-26T06:44:48;1.60;61.30
13221;DHT22;6675;48.128;11.478;2024-02-26T06:47:13;1.30;59.80
13221;DHT22;6675;48.128;11.478;2024-02-26T06:49:39;1.70;57.50
13221;DHT22;6675;48.128;11.478;2024-02-26T06:52:04;1.70;55.60
13221;DHT22;6675;48.128;11.478;2024-02-26T06:54:31;2.00;55.40
13221;DHT22;6675;48.128;11.478;2024-02-26T06:56:57;2.00;52.40
13221;DHT22;6675;48.128;11.478;2024-02-26T06:59:22;2.20;52.10
13221;DHT22;6675;48.128;11.478;2024-02-26T07:01:49;2.20;51.70
13221;DHT22;6675;48.128;11.478;2024-02-26T07:04:14;2.30;51.80
13221;DHT22;6675;48.128;11.478;2024-02-26T07:06:40;2.30;51.10
13221;DHT22;6675;48.128;11.478;2024-02-26T07:09:06;2.60;50.30
13221;DHT22;6675;48.128;11.478;2024-02-26T07:11:32;2.80;51.30
13221;DHT22;6675;48.128;11.478;2024-02-26T07:13:57;2.60;49.40
13221;DHT22;6675;48.128;11.478;2024-02-26T07:16:23;2.80;49.30
13221;DHT22;6675;48.128;11.478;2024-02-26T07:18:49;3.10;48.00
13221;DHT22;6675;48.128;11.478;2024-02-26T07:21:14;3.10;45.60
13221;DHT22;6675;48.128;11.478;2024-02-26T07:23:40;3.30;46.40
13221;DHT22;6675;48.128;11.478;2024-02-26T07:26:06;3.40;44.10
13221;DHT22;6675;48.128;11.478;2024-02-26T07:28:33;3.60;44.50
13221;DHT22;6675;48.128;11.478;2024-02-26T07:30:59;3.60;42.50
13221;DHT22;6675;48.128;11.478;2024-02-26T07:33:24;3.80;41.40
13221;DHT22;6675;48.128;11.478;2024-02-26T07:35:50;4.10;41.70
13221;DHT22;6675;48.128;11.478;2024-02-26T07:38:16;3.90;39.60
13221;DHT22;6675;48.128;11.478;2024-02-26T07:40:41;4.20;38.10
13221;DHT22;6675;48.128;11.478;2024-02-26T07:43:07;4.30;38.50
13221;DHT22;6675;48.128;11.478;2024-02-26T07:45:33;4.30;38.70
13221;DHT22;6675;48.128;11.478;2024-02-26T07:47:58;4.80;38.80
13221;DHT22;6675;48.128;11.478;2024-02-26T07:50:24;5.00;34.00
13221;DHT22;6675;48.128;11.478;2024-02-26T07:52:49;5.20;33.00
13221;DHT22;6675;48.128;11.478;2024-02-26T07:55:16;5.40;29.60
13221;DHT22;6675;48.128;11.478;2024-02-26T07:57:42;5.30;29.70
13221;DHT22;6675;48.128;11.478;2024-02-26T08:00:09;5.60;28.90
13221;DHT22;6675;48.128;11.478;2024-02-26T08:02:36;6.10;28.20
13221;DHT22;6675;48.128;11.478;2024-02-26T08:05:01;6.20;26.20
13221;DHT22;6675;48.128;11.478;2024-02-26T08:07:27;6.20;26.20
13221;DHT22;6675;48.128;11.478;2024-02-26T08:09:53;6.60;25.10
13221;DHT22;6675;48.128;11.478;2024-02-26T08:12:19;6.10;23.70
13221;DHT22;6675;48.128;11.478;2024-02-26T08:14:44;6.80;23.90
13221;DHT22;6675;48.128;11.478;2024-02-26T08:17:10;6.70;18.70
13221;DHT22;6675;48.128;11.478;2024-02-26T08:19:36;6.90;20.60
13221;DHT22;6675;48.128;11.478;2024-02-26T08:22:02;6.80;19.90
13221;DHT22;6675;48.128;11.478;2024-02-26T08:24:28;7.40;21.10
13221;DHT22;6675;48.128;11.478;2024-02-26T08:26:53;7.70;21.40
13221;DHT22;6675;48.128;11.478;2024-02-26T08:29:19;7.60;22.30
13221;DHT22;6675;48.128;11.478;2024-02-26T08:31:44;8.00;21.60
13221;DHT22;6675;48.128;11.478;2024-02-26T08:34:10;9.40;19.80
13221;DHT22;6675;48.128;11.478;2024-02-26T08:36:36;9.80;13.40
13221;DHT22;6675;48.128;11.478;2024-02-26T08:39:02;10.20;9.10
13221;DHT22;6675;48.128;11.478;2024-02-26T08:41:27;10.90;7.00
13221;DHT22;6675;48.128;11.478;2024-02-26T08:43:53;10.10;5.90
13221;DHT22;6675;48.128;11.478;2024-02-26T08:46:18;10.50;6.60
13221;DHT22;6675;48.128;11.478;2024-02-26T08:48:44;9.80;7.60
13221;DHT22;6675;48.128;11.478;2024-02-26T08:51:09;9.90;7.30
13221;DHT22;6675;48.128;11.478;2024-02-26T08:53:36;10.10;6.50
13221;DHT22;6675;48.128;11.478;2024-02-26T08:56:01;9.90;6.60
13221;DHT22;6675;48.128;11.478;2024-02-26T08:58:28;10.10;5.90
13221;DHT22;6675;48.128;11.478;2024-02-26T09:00:54;10.20;6.70
13221;DHT22;6675;48.128;11.478;2024-02-26T09:03:19;10.10;4.40
13221;DHT22;6675;48.128;11.478;2024-02-26T09:05:45;9.90;6.10
13221;DHT22;6675;48.128;11.478;2024-02-26T09:08:10;10.40;6.40
13221;DHT22;6675;48.128;11.478;2024-02-26T09:10:36;10.20;5.50
13221;DHT22;6675;48.128;11.478;2024-02-26T09:13:01;11.30;8.00
13221;DHT22;6675;48.128;11.478;2024-02-26T09:15:27;11.90;3.60
13221;DHT22;6675;48.128;11.478;2024-02-26T09:17:53;13.10;1.00
13221;DHT22;6675;48.128;11.478;2024-02-26T09:20:19;12.60;1.00
13221;DHT22;6675;48.128;11.478;2024-02-26T09:22:46;13.00;1.00
13221;DHT22;6675;48.128;11.478;2024-02-26T09:25:12;12.60;1.00
13221;DHT22;6675;48.128;11.478;2024-02-26T09:27:38;13.10;1.00
13221;DHT22;6675;48.128;11.478;2024-02-26T09:30:04;12.30;1.00
13221;DHT22;6675;48.128;11.478;2024-02-26T09:32:30;12.20;1.00
13221;DHT22;6675;48.128;11.478;2024-02-26T09:34:56;12.00;1.00
13221;DHT22;6675;48.128;11.478;2024-02-26T09:37:21;11.60;1.00
13221;DHT22;6675;48.128;11.478;2024-02-26T09:39:47;11.30;1.00
13221;DHT22;6675;48.128;11.478;2024-02-26T09:42:13;10.70;1.00
13221;DHT22;6675;48.128;11.478;2024-02-26T09:44:40;11.10;1.00
13221;DHT22;6675;48.128;11.478;2024-02-26T09:47:09;10.70;1.00
13221;DHT22;6675;48.128;11.478;2024-02-26T09:49:36;10.60;1.00
13221;DHT22;6675;48.128;11.478;2024-02-26T09:52:04;11.10;1.00
13221;DHT22;6675;48.128;11.478;2024-02-26T09:54:31;11.10;1.00
13221;DHT22;6675;48.128;11.478;2024-02-26T09:56:59;11.40;1.00
13221;DHT22;6675;48.128;11.478;2024-02-26T09:59:27;12.00;1.00
13221;DHT22;6675;48.128;11.478;2024-02-26T10:01:53;13.40;1.00
13221;DHT22;6675;48.128;11.478;2024-02-26T10:04:19;16.10;1.00
13221;DHT22;6675;48.128;11.478;2024-02-26T10:06:46;15.90;1.00
13221;DHT22;6675;48.128;11.478;2024-02-26T10:09:12;16.50;1.00
13221;DHT22;6675;48.128;11.478;2024-02-26T10:11:38;17.20;1.00
13221;DHT22;6675;48.128;11.478;2024-02-26T10:14:05;17.90;1.00
13221;DHT22;6675;48.128;11.478;2024-02-26T10:16:32;18.70;1.00
13221;DHT22;6675;48.128;11.478;2024-02-26T10:18:58;19.60;1.00
13221;DHT22;6675;48.128;11.478;2024-02-26T10:21:24;20.30;1.00
13221;DHT22;6675;48.128;11.478;2024-02-26T10:23:49;21.40;1.00
13221;DHT22;6675;48.128;11.478;2024-02-26T10:26:18;22.30;1.00
13221;DHT22;6675;48.128;11.478;2024-02-26T10:28:45;22.40;1.00
13221;DHT22;6675;48.128;11.478;2024-02-26T10:31:11;24.30;1.00
13221;DHT22;6675;48.128;11.478;2024-02-26T10:33:39;24.40;1.00
13221;DHT22;6675;48.128;11.478;2024-02-26T10:36:05;25.00;1.00
13221;DHT22;6675;48.128;11.478;2024-02-26T10:38:35;24.80;1.00
13221;DHT22;6675;48.128;11.478;2024-02-26T10:41:02;23.60;1.00
13221;DHT22;6675;48.128;11.478;2024-02-26T10:43:28;23.50;1.00
13221;DHT22;6675;48.128;11.478;2024-02-26T10:45:55;22.90;1.00
13221;DHT22;6675;48.128;11.478;2024-02-26T10:48:21;22.40;1.00
13221;DHT22;6675;48.128;11.478;2024-02-26T10:50:47;21.30;1.00
13221;DHT22;6675;48.128;11.478;2024-02-26T10:53:21;21.30;1.00
13221;DHT22;6675;48.128;11.478;2024-02-26T10:56:08;20.80;1.00
13221;DHT22;6675;48.128;11.478;2024-02-26T10:58:34;20.00;1.00
13221;DHT22;6675;48.128;11.478;2024-02-26T11:01:01;19.00;1.00
13221;DHT22;6675;48.128;11.478;2024-02-26T11:03:28;18.20;1.00
13221;DHT22;6675;48.128;11.478;2024-02-26T11:05:57;17.70;1.00
13221;DHT22;6675;48.128;11.478;2024-02-26T11:08:24;17.30;1.00
13221;DHT22;6675;48.128;11.478;2024-02-26T11:10:53;16.50;1.00
13221;DHT22;6675;48.128;11.478;2024-02-26T11:13:19;16.40;1.00
13221;DHT22;6675;48.128;11.478;2024-02-26T11:15:46;15.70;1.00
13221;DHT22;6675;48.128;11.478;2024-02-26T11:18:16;14.80;1.00
13221;DHT22;6675;48.128;11.478;2024-02-26T11:20:43;14.00;1.00
13221;DHT22;6675;48.128;11.478;2024-02-26T11:23:09;13.90;1.00
13221;DHT22;6675;48.128;11.478;2024-02-26T11:25:36;13.10;1.00
13221;DHT22;6675;48.128;11.478;2024-02-26T11:28:05;13.40;1.00
13221;DHT22;6675;48.128;11.478;2024-02-26T11:30:36;15.10;1.00
13221;DHT22;6675;48.128;11.478;2024-02-26T11:33:04;13.70;1.00
13221;DHT22;6675;48.128;11.478;2024-02-26T11:35:31;14.00;1.00
13221;DHT22;6675;48.128;11.478;2024-02-26T11:37:57;14.40;1.00
13221;DHT22;6675;48.128;11.478;2024-02-26T11:40:26;14.20;1.00
13221;DHT22;6675;48.128;11.478;2024-02-26T11:42:53;14.10;1.00
13221;DHT22;6675;48.128;11.478;2024-02-26T11:48:03;14.60;1.00
13221;DHT22;6675;48.128;11.478;2024-02-26T11:50:52;14.90;1.00
13221;DHT22;6675;48.128;11.478;2024-02-26T11:55:48;17.10;1.00
13221;DHT22;6675;48.128;11.478;2024-02-26T11:58:33;16.80;1.00
13221;DHT22;6675;48.128;11.478;2024-02-26T12:00:59;17.90;1.00
13221;DHT22;6675;48.128;11.478;2024-02-26T12:03:24;18.00;1.00
13221;DHT22;6675;48.128;11.478;2024-02-26T12:05:51;18.60;1.00
13221;DHT22;6675;48.128;11.478;2024-02-26T12:08:17;19.30;1.00
13221;DHT22;6675;48.128;11.478;2024-02-26T12:10:45;21.50;1.00
13221;DHT22;6675;48.128;11.478;2024-02-26T12:13:13;22.40;1.00
13221;DHT22;6675;48.128;11.478;2024-02-26T12:18:07;24.40;1.00
13221;DHT22;6675;48.128;11.478;2024-02-26T12:20:37;25.60;1.00
13221;DHT22;6675;48.128;11.478;2024-02-26T12:23:03;26.90;1.00
13221;DHT22;6675;48.128;11.478;2024-02-26T12:25:32;28.00;1.00
13221;DHT22;6675;48.128;11.478;2024-02-26T12:27:59;29.00;1.00
13221;DHT22;6675;48.128;11.478;2024-02-26T12:30:25;29.70;1.00
13221;DHT22;6675;48.128;11.478;2024-02-26T12:32:52;30.30;1.00
13221;DHT22;6675;48.128;11.478;2024-02-26T12:35:18;30.80;1.00
13221;DHT22;6675;48.128;11.478;2024-02-26T12:37:44;30.90;1.00
13221;DHT22;6675;48.128;11.478;2024-02-26T12:40:10;31.30;1.00
13221;DHT22;6675;48.128;11.478;2024-02-26T12:42:37;30.80;1.00
13221;DHT22;6675;48.128;11.478;2024-02-26T12:45:08;31.10;1.00
13221;DHT22;6675;48.128;11.478;2024-02-26T12:47:40;31.40;1.00
13221;DHT22;6675;48.128;11.478;2024-02-26T12:50:08;31.10;1.00
13221;DHT22;6675;48.128;11.478;2024-02-26T12:52:36;30.90;1.00
13221;DHT22;6675;48.128;11.478;2024-02-26T12:55:03;31.30;1.00
13221;DHT22;6675;48.128;11.478;2024-02-26T12:57:33;30.90;1.00
13221;DHT22;6675;48.128;11.478;2024-02-26T12:59:59;31.40;1.00
13221;DHT22;6675;48.128;11.478;2024-02-26T13:02:26;30.70;1.00
13221;DHT22;6675;48.128;11.478;2024-02-26T13:04:53;29.00;1.00
13221;DHT22;6675;48.128;11.478;2024-02-26T13:07:19;27.50;1.00
13221;DHT22;6675;48.128;11.478;2024-02-26T13:09:45;25.40;1.00
13221;DHT22;6675;48.128;11.478;2024-02-26T13:12:12;23.30;1.00
13221;DHT22;6675;48.128;11.478;2024-02-26T13:14:38;22.60;1.00
13221;DHT22;6675;48.128;11.478;2024-02-26T13:17:04;21.30;1.00
13221;DHT22;6675;48.128;11.478;2024-02-26T13:19:30;20.60;1.00
13221;DHT22;6675;48.128;11.478;2024-02-26T13:21:55;20.40;1.00
13221;DHT22;6675;48.128;11.478;2024-02-26T13:24:21;20.80;1.00
13221;DHT22;6675;48.128;11.478;2024-02-26T13:26:54;22.10;1.00
13221;DHT22;6675;48.128;11.478;2024-02-26T13:29:19;22.90;1.00
13221;DHT22;6675;48.128;11.478;2024-02-26T13:31:45;24.10;1.00
13221;DHT22;6675;48.128;11.478;2024-02-26T13:34:22;24.20;1.00
13221;DHT22;6675;48.128;11.478;2024-02-26T13:36:48;24.00;1.00
13221;DHT22;6675;48.128;11.478;2024-02-26T13:39:24;23.10;1.00
13221;DHT22;6675;48.128;11.478;2024-02-26T13:41:51;21.60;1.00
13221;DHT22;6675;48.128;11.478;2024-02-26T13:44:16;21.50;1.00
13221;DHT22;6675;48.128;11.478;2024-02-26T13:46:42;20.70;1.00
13221;DHT22;6675;48.128;11.478;2024-02-26T13:49:09;20.70;1.00
13221;DHT22;6675;48.128;11.478;2024-02-26T13:51:35;20.60;1.00
13221;DHT22;6675;48.128;11.478;2024-02-26T13:54:01;20.40;1.00
13221;DHT22;6675;48.128;11.478;2024-02-26T13:56:26;20.30;1.00
13221;DHT22;6675;48.128;11.478;2024-02-26T13:58:52;20.00;1.00
13221;DHT22;6675;48.128;11.478;2024-02-26T14:01:17;20.10;1.00
13221;DHT22;6675;48.128;11.478;2024-02-26T14:03:43;19.70;1.00
13221;DHT22;6675;48.128;11.478;2024-02-26T14:06:08;20.20;1.00
13221;DHT22;6675;48.128;11.478;2024-02-26T14:08:34;20.00;1.00
13221;DHT22;6675;48.128;11.478;2024-02-26T14:11:00;18.80;1.00
13221;DHT22;6675;48.128;11.478;2024-02-26T14:13:25;19.60;1.00
13221;DHT22;6675;48.128;11.478;2024-02-26T14:15:51;19.30;1.00
13221;DHT22;6675;48.128;11.478;2024-02-26T14:18:17;19.10;1.00
13221;DHT22;6675;48.128;11.478;2024-02-26T14:20:42;18.30;1.00
13221;DHT22;6675;48.128;11.478;2024-02-26T14:23:09;17.50;1.00
13221;DHT22;6675;48.128;11.478;2024-02-26T14:25:35;17.40;1.00
13221;DHT22;6675;48.128;11.478;2024-02-26T14:28:02;16.70;1.00
13221;DHT22;6675;48.128;11.478;2024-02-26T14:30:28;16.20;1.00
13221;DHT22;6675;48.128;11.478;2024-02-26T14:32:54;16.00;1.00
13221;DHT22;6675;48.128;11.478;2024-02-26T14:35:19;16.00;1.00
13221;DHT22;6675;48.128;11.478;2024-02-26T14:37:45;15.50;1.00
13221;DHT22;6675;48.128;11.478;2024-02-26T14:40:15;15.40;1.00
13221;DHT22;6675;48.128;11.478;2024-02-26T14:42:41;15.10;1.00
13221;DHT22;6675;48.128;11.478;2024-02-26T14:45:07;16.60;1.00
13221;DHT22;6675;48.128;11.478;2024-02-26T14:47:37;15.80;1.00
13221;DHT22;6675;48.128;11.478;2024-02-26T14:50:03;15.40;1.00
13221;DHT22;6675;48.128;11.478;2024-02-26T14:52:29;16.60;1.00
13221;DHT22;6675;48.128;11.478;2024-02-26T14:54:54;15.50;1.00
13221;DHT22;6675;48.128;11.478;2024-02-26T14:57:20;15.50;1.00
13221;DHT22;6675;48.128;11.478;2024-02-26T14:59:45;15.40;1.00
13221;DHT22;6675;48.128;11.478;2024-02-26T15:02:11;15.40;1.00
13221;DHT22;6675;48.128;11.478;2024-02-26T15:04:37;13.90;1.00
13221;DHT22;6675;48.128;11.478;2024-02-26T15:07:03;14.90;1.00
13221;DHT22;6675;48.128;11.478;2024-02-26T15:09:29;14.40;1.00
13221;DHT22;6675;48.128;11.478;2024-02-26T15:11:54;14.50;1.00
13221;DHT22;6675;48.128;11.478;2024-02-26T15:14:22;14.20;1.00
13221;DHT22;6675;48.128;11.478;2024-02-26T15:16:48;13.70;1.00
13221;DHT22;6675;48.128;11.478;2024-02-26T15:19:14;13.40;1.00
13221;DHT22;6675;48.128;11.478;2024-02-26T15:21:46;13.40;1.00
13221;DHT22;6675;48.128;11.478;2024-02-26T15:24:12;13.40;1.00
13221;DHT22;6675;48.128;11.478;2024-02-26T15:26:38;12.70;1.00
13221;DHT22;6675;48.128;11.478;2024-02-26T15:29:06;12.70;1.00
13221;DHT22;6675;48.128;11.478;2024-02-26T15:33:57;12.70;1.00
13221;DHT22;6675;48.128;11.478;2024-02-26T15:36:23;12.60;1.00
13221;DHT22;6675;48.128;11.478;2024-02-26T15:38:48;12.50;1.00
13221;DHT22;6675;48.128;11.478;2024-02-26T15:41:14;12.20;1.00
13221;DHT22;6675;48.128;11.478;2024-02-26T15:43:40;11.20;1.00
13221;DHT22;6675;48.128;11.478;2024-02-26T15:46:06;11.10;1.00
13221;DHT22;6675;48.128;11.478;2024-02-26T15:48:32;12.00;1.00
13221;DHT22;6675;48.128;11.478;2024-02-26T15:50:57;10.80;1.00
13221;DHT22;6675;48.128;11.478;2024-02-26T15:53:24;11.50;1.00
13221;DHT22;6675;48.128;11.478;2024-02-26T15:55:49;11.70;1.00
13221;DHT22;6675;48.128;11.478;2024-02-26T15:58:15;11.50;1.00
13221;DHT22;6675;48.128;11.478;2024-02-26T16:00:41;11.50;1.00
13221;DHT22;6675;48.128;11.478;2024-02-26T16:03:08;12.30;1.00
13221;DHT22;6675;48.128;11.478;2024-02-26T16:05:34;11.20;1.00
13221;DHT22;6675;48.128;11.478;2024-02-26T16:08:04;10.40;1.00
13221;DHT22;6675;48.128;11.478;2024-02-26T16:10:31;11.60;1.00